sensor_id;sensor_type;location;lat;lon;timestamp;P1;durP1;ratioP1;P2;durP2;ratioP2
43363;SDS011;40636;52.424;-1.948;2023-06-24T00:00:55;3.40;;;2.28;;
43363;SDS011;40636;52.424;-1.948;2023-06-24T00:03:22;3.92;;;2.30;;
43363;SDS011;40636;52.424;-1.948;2023-06-24T00:05:49;3.90;;;2.42;;
43363;SDS011;40636;52.424;-1.948;2023-06-24T00:08:16;3.83;;;2.70;;
43363;SDS011;40636;52.424;-1.948;2023-06-24T00:10:52;3.50;;;2.25;;
43363;SDS011;40636;52.424;-1.948;2023-06-24T00:13:19;4.32;;;2.72;;
43363;SDS011;40636;52.424;-1.948;2023-06-24T00:15:46;6.05;;;2.35;;
43363;SDS011;40636;52.424;-1.948;2023-06-24T00:18:27;4.88;;;2.53;;
43363;SDS011;40636;52.424;-1.948;2023-06-24T00:20:55;6.95;;;2.85;;
43363;SDS011;40636;52.424;-1.948;2023-06-24T00:23:23;3.42;;;2.33;;
43363;SDS011;40636;52.424;-1.948;2023-06-24T00:25:54;4.57;;;2.75;;
43363;SDS011;40636;52.424;-1.948;2023-06-24T00:28:22;4.35;;;2.35;;
43363;SDS011;40636;52.424;-1.948;2023-06-24T00:30:49;7.43;;;2.97;;
43363;SDS011;40636;52.424;-1.948;2023-06-24T00:33:18;3.97;;;2.97;;
43363;SDS011;40636;52.424;-1.948;2023-06-24T00:35:45;4.85;;;2.88;;
43363;SDS011;40636;52.424;-1.948;2023-06-24T00:38:12;6.00;;;3.22;;
43363;SDS011;40636;52.424;-1.948;2023-06-24T00:40:39;4.63;;;2.65;;
43363;SDS011;40636;52.424;-1.948;2023-06-24T00:43:06;4.40;;;2.85;;
43363;SDS011;40636;52.424;-1.948;2023-06-24T00:45:34;5.60;;;2.67;;
43363;SDS011;40636;52.424;-1.948;2023-06-24T00:48:01;6.57;;;2.75;;
43363;SDS011;40636;52.424;-1.948;2023-06-24T00:50:30;4.18;;;2.58;;
43363;SDS011;40636;52.424;-1.948;2023-06-24T00:52:57;4.93;;;2.85;;
43363;SDS011;40636;52.424;-1.948;2023-06-24T00:55:24;4.45;;;2.60;;
43363;SDS011;40636;52.424;-1.948;2023-06-24T00:57:51;3.75;;;3.13;;
43363;SDS011;40636;52.424;-1.948;2023-06-24T01:00:21;7.15;;;3.20;;
43363;SDS011;40636;52.424;-1.948;2023-06-24T01:02:49;5.55;;;3.30;;
43363;SDS011;40636;52.424;-1.948;2023-06-24T01:05:18;4.40;;;2.90;;
43363;SDS011;40636;52.424;-1.948;2023-06-24T01:07:49;6.80;;;3.03;;
43363;SDS011;40636;52.424;-1.948;2023-06-24T01:10:22;4.22;;;2.30;;
43363;SDS011;40636;52.424;-1.948;2023-06-24T01:12:50;7.40;;;3.08;;
43363;SDS011;40636;52.424;-1.948;2023-06-24T01:15:18;3.80;;;2.42;;
43363;SDS011;40636;52.424;-1.948;2023-06-24T01:17:54;6.32;;;2.70;;
43363;SDS011;40636;52.424;-1.948;2023-06-24T01:32:14;8.10;;;3.58;;
43363;SDS011;40636;52.424;-1.948;2023-06-24T01:34:59;4.70;;;3.10;;
43363;SDS011;40636;52.424;-1.948;2023-06-24T01:37:42;4.18;;;2.33;;
43363;SDS011;40636;52.424;-1.948;2023-06-24T01:43:03;6.18;;;2.90;;
43363;SDS011;40636;52.424;-1.948;2023-06-24T01:45:41;6.60;;;3.17;;
43363;SDS011;40636;52.424;-1.948;2023-06-24T01:48:15;5.55;;;2.85;;
43363;SDS011;40636;52.424;-1.948;2023-06-24T01:50:48;5.80;;;2.85;;
43363;SDS011;40636;52.424;-1.948;2023-06-24T01:53:23;5.22;;;2.80;;
43363;SDS011;40636;52.424;-1.948;2023-06-24T01:55:53;5.82;;;2.30;;
43363;SDS011;40636;52.424;-1.948;2023-06-24T01:58:21;7.28;;;2.72;;
43363;SDS011;40636;52.424;-1.948;2023-06-24T02:00:49;7.32;;;2.63;;
43363;SDS011;40636;52.424;-1.948;2023-06-24T02:03:18;4.95;;;2.92;;
43363;SDS011;40636;52.424;-1.948;2023-06-24T02:05:47;6.43;;;3.15;;
43363;SDS011;40636;52.424;-1.948;2023-06-24T02:08:15;8.10;;;2.92;;
43363;SDS011;40636;52.424;-1.948;2023-06-24T02:10:43;6.75;;;2.63;;
43363;SDS011;40636;52.424;-1.948;2023-06-24T02:13:12;4.95;;;2.70;;
43363;SDS011;40636;52.424;-1.948;2023-06-24T02:15:39;4.88;;;2.80;;
43363;SDS011;40636;52.424;-1.948;2023-06-24T02:18:08;4.18;;;2.70;;
43363;SDS011;40636;52.424;-1.948;2023-06-24T02:20:36;7.15;;;2.72;;
43363;SDS011;40636;52.424;-1.948;2023-06-24T02:23:06;6.25;;;2.83;;
43363;SDS011;40636;52.424;-1.948;2023-06-24T02:25:34;5.95;;;2.83;;
43363;SDS011;40636;52.424;-1.948;2023-06-24T02:28:07;7.68;;;3.47;;
43363;SDS011;40636;52.424;-1.948;2023-06-24T02:30:36;7.82;;;3.10;;
43363;SDS011;40636;52.424;-1.948;2023-06-24T02:33:04;7.47;;;4.20;;
43363;SDS011;40636;52.424;-1.948;2023-06-24T02:35:35;4.60;;;2.60;;
43363;SDS011;40636;52.424;-1.948;2023-06-24T02:38:02;7.28;;;3.13;;
43363;SDS011;40636;52.424;-1.948;2023-06-24T02:40:29;3.95;;;2.97;;
43363;SDS011;40636;52.424;-1.948;2023-06-24T02:42:57;5.85;;;3.03;;
43363;SDS011;40636;52.424;-1.948;2023-06-24T02:45:24;7.50;;;2.63;;
43363;SDS011;40636;52.424;-1.948;2023-06-24T02:47:52;4.10;;;2.42;;
43363;SDS011;40636;52.424;-1.948;2023-06-24T02:50:20;5.75;;;3.30;;
43363;SDS011;40636;52.424;-1.948;2023-06-24T02:52:48;4.70;;;3.10;;
43363;SDS011;40636;52.424;-1.948;2023-06-24T02:55:15;3.95;;;2.70;;
43363;SDS011;40636;52.424;-1.948;2023-06-24T02:57:43;5.70;;;2.60;;
43363;SDS011;40636;52.424;-1.948;2023-06-24T03:00:11;5.55;;;2.60;;
43363;SDS011;40636;52.424;-1.948;2023-06-24T03:02:40;4.80;;;2.75;;
43363;SDS011;40636;52.424;-1.948;2023-06-24T03:05:09;14.32;;;3.70;;
43363;SDS011;40636;52.424;-1.948;2023-06-24T03:07:37;6.75;;;3.30;;
43363;SDS011;40636;52.424;-1.948;2023-06-24T03:10:05;6.00;;;3.22;;
43363;SDS011;40636;52.424;-1.948;2023-06-24T03:12:32;3.83;;;3.17;;
43363;SDS011;40636;52.424;-1.948;2023-06-24T03:14:59;5.25;;;3.22;;
43363;SDS011;40636;52.424;-1.948;2023-06-24T03:17:27;10.18;;;3.10;;
43363;SDS011;40636;52.424;-1.948;2023-06-24T03:19:54;4.30;;;3.03;;
43363;SDS011;40636;52.424;-1.948;2023-06-24T03:22:21;7.85;;;2.95;;
43363;SDS011;40636;52.424;-1.948;2023-06-24T03:24:48;6.43;;;3.20;;
43363;SDS011;40636;52.424;-1.948;2023-06-24T03:27:15;9.60;;;3.55;;
43363;SDS011;40636;52.424;-1.948;2023-06-24T03:29:42;5.25;;;3.08;;
43363;SDS011;40636;52.424;-1.948;2023-06-24T03:32:09;5.35;;;2.97;;
43363;SDS011;40636;52.424;-1.948;2023-06-24T03:34:36;9.82;;;3.50;;
43363;SDS011;40636;52.424;-1.948;2023-06-24T03:37:03;7.85;;;4.00;;
43363;SDS011;40636;52.424;-1.948;2023-06-24T03:39:30;10.63;;;3.13;;
43363;SDS011;40636;52.424;-1.948;2023-06-24T03:41:57;4.45;;;3.35;;
43363;SDS011;40636;52.424;-1.948;2023-06-24T03:44:24;6.82;;;3.05;;
43363;SDS011;40636;52.424;-1.948;2023-06-24T03:46:51;12.27;;;3.50;;
43363;SDS011;40636;52.424;-1.948;2023-06-24T03:49:17;6.03;;;2.78;;
43363;SDS011;40636;52.424;-1.948;2023-06-24T03:51:45;8.20;;;3.05;;
43363;SDS011;40636;52.424;-1.948;2023-06-24T03:54:12;5.55;;;3.08;;
43363;SDS011;40636;52.424;-1.948;2023-06-24T03:56:38;5.50;;;2.97;;
43363;SDS011;40636;52.424;-1.948;2023-06-24T03:59:05;5.43;;;3.20;;
43363;SDS011;40636;52.424;-1.948;2023-06-24T04:01:32;5.97;;;3.15;;
43363;SDS011;40636;52.424;-1.948;2023-06-24T04:03:59;5.88;;;3.55;;
43363;SDS011;40636;52.424;-1.948;2023-06-24T04:06:26;5.95;;;3.53;;
43363;SDS011;40636;52.424;-1.948;2023-06-24T04:08:53;5.65;;;3.30;;
43363;SDS011;40636;52.424;-1.948;2023-06-24T04:11:20;7.57;;;3.30;;
43363;SDS011;40636;52.424;-1.948;2023-06-24T04:13:46;6.57;;;3.50;;
43363;SDS011;40636;52.424;-1.948;2023-06-24T04:16:14;6.47;;;3.65;;
43363;SDS011;40636;52.424;-1.948;2023-06-24T04:18:41;5.82;;;3.80;;
43363;SDS011;40636;52.424;-1.948;2023-06-24T04:21:08;8.25;;;3.90;;
43363;SDS011;40636;52.424;-1.948;2023-06-24T04:23:35;6.30;;;3.85;;
43363;SDS011;40636;52.424;-1.948;2023-06-24T04:26:02;5.70;;;3.60;;
43363;SDS011;40636;52.424;-1.948;2023-06-24T04:28:29;7.05;;;3.63;;
43363;SDS011;40636;52.424;-1.948;2023-06-24T04:30:56;5.40;;;3.78;;
43363;SDS011;40636;52.424;-1.948;2023-06-24T04:33:24;12.75;;;6.40;;
43363;SDS011;40636;52.424;-1.948;2023-06-24T04:35:51;5.72;;;3.58;;
43363;SDS011;40636;52.424;-1.948;2023-06-24T04:38:17;7.32;;;3.80;;
43363;SDS011;40636;52.424;-1.948;2023-06-24T04:40:45;8.45;;;3.70;;
43363;SDS011;40636;52.424;-1.948;2023-06-24T04:43:12;6.20;;;3.42;;
43363;SDS011;40636;52.424;-1.948;2023-06-24T04:45:38;7.78;;;3.70;;
43363;SDS011;40636;52.424;-1.948;2023-06-24T04:48:05;8.10;;;3.90;;
43363;SDS011;40636;52.424;-1.948;2023-06-24T04:50:32;6.25;;;3.90;;
43363;SDS011;40636;52.424;-1.948;2023-06-24T04:52:59;6.20;;;4.22;;
43363;SDS011;40636;52.424;-1.948;2023-06-24T04:55:28;7.28;;;4.10;;
43363;SDS011;40636;52.424;-1.948;2023-06-24T04:57:58;6.60;;;4.00;;
43363;SDS011;40636;52.424;-1.948;2023-06-24T05:00:24;6.65;;;3.95;;
43363;SDS011;40636;52.424;-1.948;2023-06-24T05:02:52;5.93;;;3.45;;
43363;SDS011;40636;52.424;-1.948;2023-06-24T05:05:19;10.50;;;4.50;;
43363;SDS011;40636;52.424;-1.948;2023-06-24T05:07:47;11.25;;;3.88;;
43363;SDS011;40636;52.424;-1.948;2023-06-24T05:10:14;7.18;;;4.32;;
43363;SDS011;40636;52.424;-1.948;2023-06-24T05:12:41;8.18;;;4.47;;
43363;SDS011;40636;52.424;-1.948;2023-06-24T05:15:08;7.57;;;3.92;;
43363;SDS011;40636;52.424;-1.948;2023-06-24T05:17:36;7.60;;;4.15;;
43363;SDS011;40636;52.424;-1.948;2023-06-24T05:20:03;10.10;;;3.97;;
43363;SDS011;40636;52.424;-1.948;2023-06-24T05:22:30;7.35;;;3.40;;
43363;SDS011;40636;52.424;-1.948;2023-06-24T05:24:57;11.35;;;4.35;;
43363;SDS011;40636;52.424;-1.948;2023-06-24T05:27:24;7.88;;;4.60;;
43363;SDS011;40636;52.424;-1.948;2023-06-24T05:29:51;6.20;;;3.53;;
43363;SDS011;40636;52.424;-1.948;2023-06-24T05:32:18;6.72;;;3.67;;
43363;SDS011;40636;52.424;-1.948;2023-06-24T05:34:46;6.30;;;3.97;;
43363;SDS011;40636;52.424;-1.948;2023-06-24T05:37:13;8.55;;;3.92;;
43363;SDS011;40636;52.424;-1.948;2023-06-24T05:39:41;6.32;;;3.80;;
43363;SDS011;40636;52.424;-1.948;2023-06-24T05:42:08;7.53;;;3.75;;
43363;SDS011;40636;52.424;-1.948;2023-06-24T05:44:35;9.35;;;4.65;;
43363;SDS011;40636;52.424;-1.948;2023-06-24T05:47:01;6.85;;;4.10;;
43363;SDS011;40636;52.424;-1.948;2023-06-24T05:49:28;7.18;;;3.75;;
43363;SDS011;40636;52.424;-1.948;2023-06-24T05:51:56;6.78;;;4.25;;
43363;SDS011;40636;52.424;-1.948;2023-06-24T05:54:23;8.57;;;4.30;;
43363;SDS011;40636;52.424;-1.948;2023-06-24T05:56:50;5.53;;;3.38;;
43363;SDS011;40636;52.424;-1.948;2023-06-24T05:59:17;5.60;;;3.30;;
43363;SDS011;40636;52.424;-1.948;2023-06-24T06:01:43;6.93;;;3.88;;
43363;SDS011;40636;52.424;-1.948;2023-06-24T06:04:10;7.85;;;3.85;;
43363;SDS011;40636;52.424;-1.948;2023-06-24T06:06:37;9.23;;;4.57;;
43363;SDS011;40636;52.424;-1.948;2023-06-24T06:09:05;11.15;;;4.55;;
43363;SDS011;40636;52.424;-1.948;2023-06-24T06:11:34;5.55;;;3.40;;
43363;SDS011;40636;52.424;-1.948;2023-06-24T06:14:01;9.70;;;4.07;;
43363;SDS011;40636;52.424;-1.948;2023-06-24T06:16:28;7.75;;;3.33;;
43363;SDS011;40636;52.424;-1.948;2023-06-24T06:18:54;5.32;;;3.67;;
43363;SDS011;40636;52.424;-1.948;2023-06-24T06:21:21;6.18;;;3.28;;
43363;SDS011;40636;52.424;-1.948;2023-06-24T06:23:48;5.65;;;2.90;;
43363;SDS011;40636;52.424;-1.948;2023-06-24T06:26:15;5.57;;;3.20;;
43363;SDS011;40636;52.424;-1.948;2023-06-24T06:28:42;5.57;;;3.70;;
43363;SDS011;40636;52.424;-1.948;2023-06-24T06:31:09;5.80;;;3.13;;
43363;SDS011;40636;52.424;-1.948;2023-06-24T06:33:36;7.13;;;3.40;;
43363;SDS011;40636;52.424;-1.948;2023-06-24T06:36:02;7.10;;;3.22;;
43363;SDS011;40636;52.424;-1.948;2023-06-24T06:38:29;4.60;;;3.08;;
43363;SDS011;40636;52.424;-1.948;2023-06-24T06:40:56;6.72;;;3.28;;
43363;SDS011;40636;52.424;-1.948;2023-06-24T06:43:23;6.60;;;3.25;;
43363;SDS011;40636;52.424;-1.948;2023-06-24T06:45:50;7.60;;;3.53;;
43363;SDS011;40636;52.424;-1.948;2023-06-24T06:48:21;5.45;;;3.05;;
43363;SDS011;40636;52.424;-1.948;2023-06-24T06:50:47;6.55;;;3.40;;
43363;SDS011;40636;52.424;-1.948;2023-06-24T06:53:14;5.90;;;3.28;;
43363;SDS011;40636;52.424;-1.948;2023-06-24T06:55:41;5.95;;;3.67;;
43363;SDS011;40636;52.424;-1.948;2023-06-24T06:58:09;4.68;;;3.38;;
43363;SDS011;40636;52.424;-1.948;2023-06-24T07:00:36;5.55;;;3.28;;
43363;SDS011;40636;52.424;-1.948;2023-06-24T07:03:03;6.50;;;3.58;;
43363;SDS011;40636;52.424;-1.948;2023-06-24T07:05:33;8.85;;;4.30;;
43363;SDS011;40636;52.424;-1.948;2023-06-24T07:08:04;5.07;;;3.22;;
43363;SDS011;40636;52.424;-1.948;2023-06-24T07:10:31;6.63;;;3.15;;
43363;SDS011;40636;52.424;-1.948;2023-06-24T07:12:58;6.57;;;3.80;;
43363;SDS011;40636;52.424;-1.948;2023-06-24T07:15:25;7.38;;;3.97;;
43363;SDS011;40636;52.424;-1.948;2023-06-24T07:17:52;6.22;;;3.70;;
43363;SDS011;40636;52.424;-1.948;2023-06-24T07:20:21;4.93;;;3.20;;
43363;SDS011;40636;52.424;-1.948;2023-06-24T07:22:48;5.35;;;3.22;;
43363;SDS011;40636;52.424;-1.948;2023-06-24T07:25:15;9.10;;;4.53;;
43363;SDS011;40636;52.424;-1.948;2023-06-24T07:27:42;4.43;;;3.10;;
43363;SDS011;40636;52.424;-1.948;2023-06-24T07:30:10;6.88;;;3.60;;
43363;SDS011;40636;52.424;-1.948;2023-06-24T07:32:37;6.25;;;3.95;;
43363;SDS011;40636;52.424;-1.948;2023-06-24T07:35:05;5.72;;;3.33;;
43363;SDS011;40636;52.424;-1.948;2023-06-24T07:37:33;4.93;;;3.05;;
43363;SDS011;40636;52.424;-1.948;2023-06-24T07:40:01;6.82;;;3.97;;
43363;SDS011;40636;52.424;-1.948;2023-06-24T07:42:29;3.47;;;2.65;;
43363;SDS011;40636;52.424;-1.948;2023-06-24T07:44:57;5.00;;;3.33;;
43363;SDS011;40636;52.424;-1.948;2023-06-24T07:47:23;5.63;;;3.33;;
43363;SDS011;40636;52.424;-1.948;2023-06-24T07:49:52;5.70;;;3.50;;
43363;SDS011;40636;52.424;-1.948;2023-06-24T07:52:41;4.07;;;2.85;;
43363;SDS011;40636;52.424;-1.948;2023-06-24T07:55:29;6.85;;;3.60;;
43363;SDS011;40636;52.424;-1.948;2023-06-24T07:57:56;5.40;;;3.05;;
43363;SDS011;40636;52.424;-1.948;2023-06-24T08:00:24;5.43;;;3.47;;
43363;SDS011;40636;52.424;-1.948;2023-06-24T08:02:52;5.40;;;2.83;;
43363;SDS011;40636;52.424;-1.948;2023-06-24T08:05:23;4.53;;;3.13;;
43363;SDS011;40636;52.424;-1.948;2023-06-24T08:07:53;5.93;;;3.05;;
43363;SDS011;40636;52.424;-1.948;2023-06-24T08:10:21;5.57;;;3.17;;
43363;SDS011;40636;52.424;-1.948;2023-06-24T08:12:48;4.85;;;3.22;;
43363;SDS011;40636;52.424;-1.948;2023-06-24T08:15:14;7.53;;;2.67;;
43363;SDS011;40636;52.424;-1.948;2023-06-24T08:17:41;4.38;;;2.95;;
43363;SDS011;40636;52.424;-1.948;2023-06-24T08:20:08;6.40;;;3.42;;
43363;SDS011;40636;52.424;-1.948;2023-06-24T08:22:35;6.03;;;3.20;;
43363;SDS011;40636;52.424;-1.948;2023-06-24T08:25:02;7.82;;;3.63;;
43363;SDS011;40636;52.424;-1.948;2023-06-24T08:27:29;5.60;;;3.25;;
43363;SDS011;40636;52.424;-1.948;2023-06-24T08:29:56;5.63;;;2.83;;
43363;SDS011;40636;52.424;-1.948;2023-06-24T08:32:23;6.10;;;3.22;;
43363;SDS011;40636;52.424;-1.948;2023-06-24T08:34:50;5.22;;;2.88;;
43363;SDS011;40636;52.424;-1.948;2023-06-24T08:37:17;5.78;;;3.17;;
43363;SDS011;40636;52.424;-1.948;2023-06-24T08:39:43;5.72;;;3.38;;
43363;SDS011;40636;52.424;-1.948;2023-06-24T08:42:10;7.18;;;2.92;;
43363;SDS011;40636;52.424;-1.948;2023-06-24T08:44:37;6.57;;;3.50;;
43363;SDS011;40636;52.424;-1.948;2023-06-24T08:47:03;7.35;;;4.93;;
43363;SDS011;40636;52.424;-1.948;2023-06-24T08:49:31;5.53;;;3.38;;
43363;SDS011;40636;52.424;-1.948;2023-06-24T08:52:05;6.20;;;3.15;;
43363;SDS011;40636;52.424;-1.948;2023-06-24T08:54:37;7.68;;;3.97;;
43363;SDS011;40636;52.424;-1.948;2023-06-24T08:57:06;8.30;;;3.20;;
43363;SDS011;40636;52.424;-1.948;2023-06-24T08:59:34;6.57;;;3.80;;
43363;SDS011;40636;52.424;-1.948;2023-06-24T09:02:03;6.13;;;3.47;;
43363;SDS011;40636;52.424;-1.948;2023-06-24T09:04:30;6.82;;;2.97;;
43363;SDS011;40636;52.424;-1.948;2023-06-24T09:06:56;5.78;;;3.15;;
43363;SDS011;40636;52.424;-1.948;2023-06-24T09:09:23;4.72;;;3.05;;
43363;SDS011;40636;52.424;-1.948;2023-06-24T09:12:00;8.65;;;3.38;;
43363;SDS011;40636;52.424;-1.948;2023-06-24T09:14:29;6.25;;;3.50;;
43363;SDS011;40636;52.424;-1.948;2023-06-24T09:17:00;6.00;;;3.10;;
43363;SDS011;40636;52.424;-1.948;2023-06-24T09:19:28;6.30;;;2.92;;
43363;SDS011;40636;52.424;-1.948;2023-06-24T09:22:03;7.53;;;3.30;;
43363;SDS011;40636;52.424;-1.948;2023-06-24T09:24:35;6.25;;;3.50;;
43363;SDS011;40636;52.424;-1.948;2023-06-24T09:27:03;6.55;;;3.42;;
43363;SDS011;40636;52.424;-1.948;2023-06-24T09:29:31;6.43;;;3.53;;
43363;SDS011;40636;52.424;-1.948;2023-06-24T09:31:59;6.07;;;3.70;;
43363;SDS011;40636;52.424;-1.948;2023-06-24T09:34:30;5.25;;;3.67;;
43363;SDS011;40636;52.424;-1.948;2023-06-24T09:36:58;5.45;;;3.33;;
43363;SDS011;40636;52.424;-1.948;2023-06-24T09:39:26;4.95;;;3.00;;
43363;SDS011;40636;52.424;-1.948;2023-06-24T09:41:57;6.05;;;3.55;;
43363;SDS011;40636;52.424;-1.948;2023-06-24T09:44:26;3.47;;;2.97;;
43363;SDS011;40636;52.424;-1.948;2023-06-24T09:46:54;4.80;;;3.50;;
43363;SDS011;40636;52.424;-1.948;2023-06-24T09:49:24;6.97;;;3.03;;
43363;SDS011;40636;52.424;-1.948;2023-06-24T09:51:54;5.03;;;3.08;;
43363;SDS011;40636;52.424;-1.948;2023-06-24T09:54:24;3.50;;;2.47;;
43363;SDS011;40636;52.424;-1.948;2023-06-24T09:56:59;3.17;;;2.30;;
43363;SDS011;40636;52.424;-1.948;2023-06-24T09:59:29;3.15;;;2.15;;
43363;SDS011;40636;52.424;-1.948;2023-06-24T10:02:00;2.63;;;2.05;;
43363;SDS011;40636;52.424;-1.948;2023-06-24T10:04:30;3.05;;;2.10;;
43363;SDS011;40636;52.424;-1.948;2023-06-24T10:06:58;4.10;;;2.83;;
43363;SDS011;40636;52.424;-1.948;2023-06-24T10:09:25;3.70;;;2.25;;
43363;SDS011;40636;52.424;-1.948;2023-06-24T10:11:52;3.83;;;2.70;;
43363;SDS011;40636;52.424;-1.948;2023-06-24T10:14:19;3.83;;;2.28;;
43363;SDS011;40636;52.424;-1.948;2023-06-24T10:16:46;8.45;;;3.17;;
43363;SDS011;40636;52.424;-1.948;2023-06-24T10:19:18;4.15;;;2.22;;
43363;SDS011;40636;52.424;-1.948;2023-06-24T10:21:57;3.92;;;2.58;;
43363;SDS011;40636;52.424;-1.948;2023-06-24T10:24:27;2.72;;;1.88;;
43363;SDS011;40636;52.424;-1.948;2023-06-24T10:27:02;3.53;;;2.30;;
43363;SDS011;40636;52.424;-1.948;2023-06-24T10:29:31;5.40;;;2.65;;
43363;SDS011;40636;52.424;-1.948;2023-06-24T10:32:10;4.10;;;1.67;;
43363;SDS011;40636;52.424;-1.948;2023-06-24T10:37:04;5.35;;;2.22;;
43363;SDS011;40636;52.424;-1.948;2023-06-24T10:39:50;3.28;;;1.85;;
43363;SDS011;40636;52.424;-1.948;2023-06-24T10:42:36;3.60;;;2.10;;
43363;SDS011;40636;52.424;-1.948;2023-06-24T10:50:23;3.38;;;1.55;;
43363;SDS011;40636;52.424;-1.948;2023-06-24T10:52:51;4.07;;;2.10;;
43363;SDS011;40636;52.424;-1.948;2023-06-24T10:55:23;2.63;;;1.83;;
43363;SDS011;40636;52.424;-1.948;2023-06-24T10:57:52;2.72;;;1.80;;
43363;SDS011;40636;52.424;-1.948;2023-06-24T11:00:20;2.53;;;1.70;;
43363;SDS011;40636;52.424;-1.948;2023-06-24T11:02:47;3.58;;;1.85;;
43363;SDS011;40636;52.424;-1.948;2023-06-24T11:05:14;3.72;;;1.90;;
43363;SDS011;40636;52.424;-1.948;2023-06-24T11:07:41;2.95;;;1.70;;
43363;SDS011;40636;52.424;-1.948;2023-06-24T11:10:11;4.63;;;2.22;;
43363;SDS011;40636;52.424;-1.948;2023-06-24T11:12:40;4.10;;;1.92;;
43363;SDS011;40636;52.424;-1.948;2023-06-24T11:15:11;3.45;;;1.88;;
43363;SDS011;40636;52.424;-1.948;2023-06-24T11:17:39;3.00;;;2.08;;
43363;SDS011;40636;52.424;-1.948;2023-06-24T11:20:07;2.58;;;1.77;;
43363;SDS011;40636;52.424;-1.948;2023-06-24T11:22:35;3.85;;;1.95;;
43363;SDS011;40636;52.424;-1.948;2023-06-24T11:25:03;4.45;;;2.13;;
43363;SDS011;40636;52.424;-1.948;2023-06-24T11:27:30;2.25;;;1.80;;
43363;SDS011;40636;52.424;-1.948;2023-06-24T11:29:58;2.30;;;1.67;;
43363;SDS011;40636;52.424;-1.948;2023-06-24T11:32:35;2.45;;;1.23;;
43363;SDS011;40636;52.424;-1.948;2023-06-24T11:35:05;2.60;;;2.08;;
43363;SDS011;40636;52.424;-1.948;2023-06-24T11:37:34;2.47;;;1.77;;
43363;SDS011;40636;52.424;-1.948;2023-06-24T11:40:05;2.15;;;1.58;;
43363;SDS011;40636;52.424;-1.948;2023-06-24T11:42:40;1.85;;;1.50;;
43363;SDS011;40636;52.424;-1.948;2023-06-24T11:45:09;1.42;;;1.15;;
43363;SDS011;40636;52.424;-1.948;2023-06-24T11:47:41;2.08;;;1.60;;
43363;SDS011;40636;52.424;-1.948;2023-06-24T11:50:08;1.77;;;1.25;;
43363;SDS011;40636;52.424;-1.948;2023-06-24T11:55:16;3.83;;;1.50;;
43363;SDS011;40636;52.424;-1.948;2023-06-24T11:57:48;2.97;;;1.52;;
43363;SDS011;40636;52.424;-1.948;2023-06-24T12:00:15;2.50;;;1.05;;
43363;SDS011;40636;52.424;-1.948;2023-06-24T12:02:43;3.45;;;1.52;;
43363;SDS011;40636;52.424;-1.948;2023-06-24T12:05:09;2.28;;;1.33;;
43363;SDS011;40636;52.424;-1.948;2023-06-24T12:07:36;3.47;;;1.83;;
43363;SDS011;40636;52.424;-1.948;2023-06-24T12:10:03;2.20;;;1.40;;
43363;SDS011;40636;52.424;-1.948;2023-06-24T12:12:31;4.32;;;1.60;;
43363;SDS011;40636;52.424;-1.948;2023-06-24T12:14:58;2.70;;;1.60;;
43363;SDS011;40636;52.424;-1.948;2023-06-24T12:17:25;2.95;;;1.65;;
43363;SDS011;40636;52.424;-1.948;2023-06-24T12:19:52;2.35;;;1.95;;
43363;SDS011;40636;52.424;-1.948;2023-06-24T12:22:18;2.17;;;1.60;;
43363;SDS011;40636;52.424;-1.948;2023-06-24T12:24:46;1.80;;;1.58;;
43363;SDS011;40636;52.424;-1.948;2023-06-24T12:27:13;4.05;;;1.63;;
43363;SDS011;40636;52.424;-1.948;2023-06-24T12:29:40;3.95;;;1.73;;
43363;SDS011;40636;52.424;-1.948;2023-06-24T12:32:07;3.20;;;1.83;;
43363;SDS011;40636;52.424;-1.948;2023-06-24T12:34:34;4.00;;;1.75;;
43363;SDS011;40636;52.424;-1.948;2023-06-24T12:37:00;2.95;;;1.90;;
43363;SDS011;40636;52.424;-1.948;2023-06-24T12:39:27;4.25;;;2.10;;
43363;SDS011;40636;52.424;-1.948;2023-06-24T12:41:54;3.17;;;1.85;;
43363;SDS011;40636;52.424;-1.948;2023-06-24T12:44:21;3.25;;;1.92;;
43363;SDS011;40636;52.424;-1.948;2023-06-24T12:46:47;1.67;;;1.58;;
43363;SDS011;40636;52.424;-1.948;2023-06-24T12:49:14;2.80;;;1.55;;
43363;SDS011;40636;52.424;-1.948;2023-06-24T12:51:41;2.95;;;1.40;;
43363;SDS011;40636;52.424;-1.948;2023-06-24T12:54:08;1.95;;;1.17;;
43363;SDS011;40636;52.424;-1.948;2023-06-24T12:56:35;1.73;;;1.45;;
43363;SDS011;40636;52.424;-1.948;2023-06-24T12:59:02;1.75;;;1.38;;
43363;SDS011;40636;52.424;-1.948;2023-06-24T13:01:29;3.95;;;1.58;;
43363;SDS011;40636;52.424;-1.948;2023-06-24T13:03:56;5.43;;;2.42;;
43363;SDS011;40636;52.424;-1.948;2023-06-24T13:06:22;1.40;;;1.15;;
43363;SDS011;40636;52.424;-1.948;2023-06-24T13:08:49;4.90;;;2.30;;
43363;SDS011;40636;52.424;-1.948;2023-06-24T13:11:16;4.38;;;1.60;;
43363;SDS011;40636;52.424;-1.948;2023-06-24T13:13:43;6.68;;;2.15;;
43363;SDS011;40636;52.424;-1.948;2023-06-24T13:16:09;3.25;;;1.58;;
43363;SDS011;40636;52.424;-1.948;2023-06-24T13:18:36;1.67;;;1.48;;
43363;SDS011;40636;52.424;-1.948;2023-06-24T13:21:03;2.28;;;1.20;;
43363;SDS011;40636;52.424;-1.948;2023-06-24T13:23:41;1.83;;;1.52;;
43363;SDS011;40636;52.424;-1.948;2023-06-24T13:26:08;1.38;;;1.23;;
43363;SDS011;40636;52.424;-1.948;2023-06-24T13:28:35;2.22;;;1.33;;
43363;SDS011;40636;52.424;-1.948;2023-06-24T13:31:01;1.50;;;1.27;;
43363;SDS011;40636;52.424;-1.948;2023-06-24T13:33:28;2.42;;;1.15;;
43363;SDS011;40636;52.424;-1.948;2023-06-24T13:35:55;1.10;;;1.00;;
43363;SDS011;40636;52.424;-1.948;2023-06-24T13:38:22;1.88;;;1.30;;
43363;SDS011;40636;52.424;-1.948;2023-06-24T13:40:49;1.52;;;1.20;;
43363;SDS011;40636;52.424;-1.948;2023-06-24T13:43:16;4.13;;;1.30;;
43363;SDS011;40636;52.424;-1.948;2023-06-24T13:45:43;2.60;;;1.15;;
43363;SDS011;40636;52.424;-1.948;2023-06-24T13:48:09;2.25;;;1.38;;
43363;SDS011;40636;52.424;-1.948;2023-06-24T13:50:36;2.38;;;1.65;;
43363;SDS011;40636;52.424;-1.948;2023-06-24T13:53:03;2.25;;;1.67;;
43363;SDS011;40636;52.424;-1.948;2023-06-24T13:55:30;1.95;;;1.40;;
43363;SDS011;40636;52.424;-1.948;2023-06-24T13:57:57;3.30;;;1.50;;
43363;SDS011;40636;52.424;-1.948;2023-06-24T14:00:24;1.45;;;1.02;;
43363;SDS011;40636;52.424;-1.948;2023-06-24T14:02:52;3.63;;;1.60;;
43363;SDS011;40636;52.424;-1.948;2023-06-24T14:05:19;3.00;;;1.20;;
43363;SDS011;40636;52.424;-1.948;2023-06-24T14:07:46;3.22;;;1.45;;
43363;SDS011;40636;52.424;-1.948;2023-06-24T14:10:14;3.55;;;1.55;;
43363;SDS011;40636;52.424;-1.948;2023-06-24T14:12:41;2.35;;;1.20;;
43363;SDS011;40636;52.424;-1.948;2023-06-24T14:15:09;1.75;;;1.30;;
43363;SDS011;40636;52.424;-1.948;2023-06-24T14:17:36;1.52;;;1.15;;
43363;SDS011;40636;52.424;-1.948;2023-06-24T14:20:03;1.67;;;1.15;;
43363;SDS011;40636;52.424;-1.948;2023-06-24T14:22:30;1.45;;;1.10;;
43363;SDS011;40636;52.424;-1.948;2023-06-24T14:24:56;3.72;;;1.40;;
43363;SDS011;40636;52.424;-1.948;2023-06-24T14:27:23;1.92;;;1.50;;
43363;SDS011;40636;52.424;-1.948;2023-06-24T14:29:50;1.95;;;1.40;;
43363;SDS011;40636;52.424;-1.948;2023-06-24T14:32:17;2.33;;;1.58;;
43363;SDS011;40636;52.424;-1.948;2023-06-24T14:34:43;1.85;;;1.15;;
43363;SDS011;40636;52.424;-1.948;2023-06-24T14:37:10;2.28;;;1.20;;
43363;SDS011;40636;52.424;-1.948;2023-06-24T14:39:37;2.95;;;1.33;;
43363;SDS011;40636;52.424;-1.948;2023-06-24T14:42:06;1.15;;;1.02;;
43363;SDS011;40636;52.424;-1.948;2023-06-24T14:44:33;1.85;;;1.60;;
43363;SDS011;40636;52.424;-1.948;2023-06-24T14:47:00;2.15;;;1.40;;
43363;SDS011;40636;52.424;-1.948;2023-06-24T14:49:26;1.85;;;1.35;;
43363;SDS011;40636;52.424;-1.948;2023-06-24T14:51:53;2.17;;;1.75;;
43363;SDS011;40636;52.424;-1.948;2023-06-24T14:54:20;2.88;;;1.80;;
43363;SDS011;40636;52.424;-1.948;2023-06-24T14:56:47;1.35;;;1.20;;
43363;SDS011;40636;52.424;-1.948;2023-06-24T14:59:13;4.47;;;1.77;;
43363;SDS011;40636;52.424;-1.948;2023-06-24T15:01:40;3.17;;;1.38;;
43363;SDS011;40636;52.424;-1.948;2023-06-24T15:04:07;3.83;;;2.08;;